sensor_id;sensor_type;location;lat;lon;timestamp;pressure;altitude;pressure_sealevel;temperature;humidity
27304;BME280;14791;52.392;13.092;2023-03-08T00:01:38;99365.33;;;6.73;52.13
27304;BME280;14791;52.392;13.092;2023-03-08T00:04:09;99368.07;;;6.71;52.17
27304;BME280;14791;52.392;13.092;2023-03-08T00:06:38;99378.20;;;6.72;52.21
27304;BME280;14791;52.392;13.092;2023-03-08T00:09:08;99380.94;;;6.70;52.23
27304;BME280;14791;52.392;13.092;2023-03-08T00:11:37;99380.09;;;6.70;52.19
27304;BME280;14791;52.392;13.092;2023-03-08T00:14:06;99384.47;;;6.71;52.18
27304;BME280;14791;52.392;13.092;2023-03-08T00:16:35;99388.27;;;6.67;52.15
27304;BME280;14791;52.392;13.092;2023-03-08T00:19:03;99385.26;;;6.66;52.20
27304;BME280;14791;52.392;13.092;2023-03-08T00:21:32;99391.89;;;6.66;52.21
27304;BME280;14791;52.392;13.092;2023-03-08T00:24:02;99395.12;;;6.64;52.15
27304;BME280;14791;52.392;13.092;2023-03-08T00:26:31;99394.85;;;6.61;52.17
27304;BME280;14791;52.392;13.092;2023-03-08T00:29:00;99397.69;;;6.58;52.19
27304;BME280;14791;52.392;13.092;2023-03-08T00:31:28;99400.91;;;6.56;52.21
27304;BME280;14791;52.392;13.092;2023-03-08T00:33:57;99401.03;;;6.54;52.22
27304;BME280;14791;52.392;13.092;2023-03-08T00:36:26;99403.98;;;6.50;52.24
27304;BME280;14791;52.392;13.092;2023-03-08T00:38:56;99400.58;;;6.48;52.28
27304;BME280;14791;52.392;13.092;2023-03-08T00:41:25;99405.61;;;6.45;52.30
27304;BME280;14791;52.392;13.092;2023-03-08T00:43:54;99403.62;;;6.42;52.32
27304;BME280;14791;52.392;13.092;2023-03-08T00:46:24;99406.00;;;6.39;52.35
27304;BME280;14791;52.392;13.092;2023-03-08T00:48:53;99404.52;;;6.35;52.41
27304;BME280;14791;52.392;13.092;2023-03-08T00:51:22;99413.05;;;6.33;52.46
27304;BME280;14791;52.392;13.092;2023-03-08T00:53:51;99407.47;;;6.30;52.49
27304;BME280;14791;52.392;13.092;2023-03-08T00:56:20;99405.87;;;6.28;52.53
27304;BME280;14791;52.392;13.092;2023-03-08T00:58:48;99411.35;;;6.25;52.55
27304;BME280;14791;52.392;13.092;2023-03-08T01:01:18;99410.62;;;6.23;52.54
27304;BME280;14791;52.392;13.092;2023-03-08T01:03:49;99410.80;;;6.20;52.55
27304;BME280;14791;52.392;13.092;2023-03-08T01:06:18;99411.98;;;6.15;52.59
27304;BME280;14791;52.392;13.092;2023-03-08T01:08:47;99417.09;;;6.11;52.68
27304;BME280;14791;52.392;13.092;2023-03-08T01:11:23;99427.78;;;6.10;52.73
27304;BME280;14791;52.392;13.092;2023-03-08T01:13:53;99435.09;;;6.06;52.77
27304;BME280;14791;52.392;13.092;2023-03-08T01:16:25;99432.25;;;6.02;52.84
27304;BME280;14791;52.392;13.092;2023-03-08T01:18:55;99432.45;;;5.99;52.86
27304;BME280;14791;52.392;13.092;2023-03-08T01:21:27;99435.19;;;5.98;52.85
27304;BME280;14791;52.392;13.092;2023-03-08T01:23:57;99437.20;;;5.94;52.87
27304;BME280;14791;52.392;13.092;2023-03-08T01:26:28;99441.31;;;5.91;52.95
27304;BME280;14791;52.392;13.092;2023-03-08T01:28:57;99437.54;;;5.88;52.97
27304;BME280;14791;52.392;13.092;2023-03-08T01:31:29;99446.45;;;5.87;53.01
27304;BME280;14791;52.392;13.092;2023-03-08T01:33:59;99447.49;;;5.84;53.04
27304;BME280;14791;52.392;13.092;2023-03-08T01:36:28;99444.53;;;5.82;53.11
27304;BME280;14791;52.392;13.092;2023-03-08T01:38:59;99439.35;;;5.80;53.14
27304;BME280;14791;52.392;13.092;2023-03-08T01:41:30;99436.42;;;5.78;53.16
27304;BME280;14791;52.392;13.092;2023-03-08T01:44:01;99440.88;;;5.77;53.21
27304;BME280;14791;52.392;13.092;2023-03-08T01:46:32;99445.30;;;5.76;53.23
27304;BME280;14791;52.392;13.092;2023-03-08T01:49:11;99438.67;;;5.76;53.17
27304;BME280;14791;52.392;13.092;2023-03-08T01:52:15;99448.15;;;5.73;53.21
27304;BME280;14791;52.392;13.092;2023-03-08T01:57:10;99450.44;;;5.65;53.31
27304;BME280;14791;52.392;13.092;2023-03-08T01:59:35;99454.29;;;5.60;53.35
27304;BME280;14791;52.392;13.092;2023-03-08T02:02:06;99449.19;;;5.57;53.37
27304;BME280;14791;52.392;13.092;2023-03-08T02:04:36;99453.25;;;5.55;53.38
27304;BME280;14791;52.392;13.092;2023-03-08T02:07:08;99448.98;;;5.52;53.46
27304;BME280;14791;52.392;13.092;2023-03-08T02:09:37;99454.77;;;5.52;53.53
27304;BME280;14791;52.392;13.092;2023-03-08T02:12:09;99447.67;;;5.52;53.58
27304;BME280;14791;52.392;13.092;2023-03-08T02:14:41;99449.39;;;5.53;53.57
27304;BME280;14791;52.392;13.092;2023-03-08T02:17:11;99457.34;;;5.53;53.57
27304;BME280;14791;52.392;13.092;2023-03-08T02:19:52;99451.56;;;5.54;53.54
27304;BME280;14791;52.392;13.092;2023-03-08T02:22:21;99448.51;;;5.53;53.52
27304;BME280;14791;52.392;13.092;2023-03-08T02:24:50;99445.70;;;5.49;53.55
27304;BME280;14791;52.392;13.092;2023-03-08T02:27:25;99441.33;;;5.48;53.56
27304;BME280;14791;52.392;13.092;2023-03-08T02:29:54;99450.98;;;5.49;53.50
27304;BME280;14791;52.392;13.092;2023-03-08T02:32:23;99456.93;;;5.45;53.54
27304;BME280;14791;52.392;13.092;2023-03-08T02:34:53;99458.73;;;5.45;53.53
27304;BME280;14791;52.392;13.092;2023-03-08T02:37:21;99453.16;;;5.42;53.49
27304;BME280;14791;52.392;13.092;2023-03-08T02:39:50;99457.20;;;5.41;53.49
27304;BME280;14791;52.392;13.092;2023-03-08T02:42:21;99461.74;;;5.39;53.51
27304;BME280;14791;52.392;13.092;2023-03-08T02:44:50;99460.53;;;5.37;53.55
27304;BME280;14791;52.392;13.092;2023-03-08T02:47:19;99456.64;;;5.36;53.58
27304;BME280;14791;52.392;13.092;2023-03-08T02:49:48;99455.88;;;5.33;53.61
27304;BME280;14791;52.392;13.092;2023-03-08T02:52:17;99463.45;;;5.32;53.59
27304;BME280;14791;52.392;13.092;2023-03-08T02:54:46;99463.05;;;5.31;53.56
27304;BME280;14791;52.392;13.092;2023-03-08T02:57:14;99463.64;;;5.29;53.60
27304;BME280;14791;52.392;13.092;2023-03-08T02:59:45;99460.60;;;5.28;53.66
27304;BME280;14791;52.392;13.092;2023-03-08T03:02:14;99462.48;;;5.26;53.67
27304;BME280;14791;52.392;13.092;2023-03-08T03:04:43;99460.80;;;5.25;53.69
27304;BME280;14791;52.392;13.092;2023-03-08T03:07:12;99463.44;;;5.25;53.66
27304;BME280;14791;52.392;13.092;2023-03-08T03:09:41;99460.42;;;5.24;53.64
27304;BME280;14791;52.392;13.092;2023-03-08T03:12:10;99455.69;;;5.22;53.69
27304;BME280;14791;52.392;13.092;2023-03-08T03:14:40;99460.98;;;5.22;53.67
27304;BME280;14791;52.392;13.092;2023-03-08T03:17:09;99463.23;;;5.21;53.72
27304;BME280;14791;52.392;13.092;2023-03-08T03:19:38;99464.55;;;5.21;53.76
27304;BME280;14791;52.392;13.092;2023-03-08T03:22:07;99471.58;;;5.22;53.79
27304;BME280;14791;52.392;13.092;2023-03-08T03:24:36;99468.92;;;5.22;53.89
27304;BME280;14791;52.392;13.092;2023-03-08T03:27:06;99475.55;;;5.22;53.94
27304;BME280;14791;52.392;13.092;2023-03-08T03:29:37;99475.91;;;5.23;53.91
27304;BME280;14791;52.392;13.092;2023-03-08T03:32:11;99481.97;;;5.25;53.92
27304;BME280;14791;52.392;13.092;2023-03-08T03:34:40;99481.61;;;5.24;53.92
27304;BME280;14791;52.392;13.092;2023-03-08T03:37:09;99488.03;;;5.27;53.93
27304;BME280;14791;52.392;13.092;2023-03-08T03:39:39;99481.41;;;5.27;53.97
27304;BME280;14791;52.392;13.092;2023-03-08T03:42:10;99490.56;;;5.29;53.96
27304;BME280;14791;52.392;13.092;2023-03-08T03:44:42;99493.13;;;5.30;53.94
27304;BME280;14791;52.392;13.092;2023-03-08T03:47:13;99490.41;;;5.32;53.90
27304;BME280;14791;52.392;13.092;2023-03-08T03:49:43;99496.55;;;5.32;53.98
27304;BME280;14791;52.392;13.092;2023-03-08T03:52:14;99486.72;;;5.35;53.95
27304;BME280;14791;52.392;13.092;2023-03-08T03:54:45;99495.51;;;5.35;53.94
27304;BME280;14791;52.392;13.092;2023-03-08T03:57:14;99495.80;;;5.38;53.88
27304;BME280;14791;52.392;13.092;2023-03-08T03:59:44;99503.27;;;5.38;53.78
27304;BME280;14791;52.392;13.092;2023-03-08T04:02:13;99500.13;;;5.39;53.67
27304;BME280;14791;52.392;13.092;2023-03-08T04:04:43;99493.15;;;5.38;53.64
27304;BME280;14791;52.392;13.092;2023-03-08T04:07:13;99491.83;;;5.38;53.67
27304;BME280;14791;52.392;13.092;2023-03-08T04:09:51;99489.66;;;5.37;53.57
27304;BME280;14791;52.392;13.092;2023-03-08T04:12:20;99490.02;;;5.38;53.54
27304;BME280;14791;52.392;13.092;2023-03-08T04:14:49;99500.33;;;5.36;53.53
27304;BME280;14791;52.392;13.092;2023-03-08T04:17:18;99505.63;;;5.36;53.50
27304;BME280;14791;52.392;13.092;2023-03-08T04:19:49;99502.50;;;5.36;53.49
27304;BME280;14791;52.392;13.092;2023-03-08T04:22:18;99500.73;;;5.37;53.46
27304;BME280;14791;52.392;13.092;2023-03-08T04:24:52;99499.84;;;5.36;53.40
27304;BME280;14791;52.392;13.092;2023-03-08T04:27:22;99499.00;;;5.36;53.37
27304;BME280;14791;52.392;13.092;2023-03-08T04:29:53;99498.16;;;5.35;53.38
27304;BME280;14791;52.392;13.092;2023-03-08T04:32:22;99503.94;;;5.35;53.38
27304;BME280;14791;52.392;13.092;2023-03-08T04:34:55;99498.64;;;5.35;53.37
27304;BME280;14791;52.392;13.092;2023-03-08T04:37:25;99495.51;;;5.35;53.36
27304;BME280;14791;52.392;13.092;2023-03-08T04:39:56;99492.30;;;5.37;53.38
27304;BME280;14791;52.392;13.092;2023-03-08T04:42:26;99493.52;;;5.39;53.34
27304;BME280;14791;52.392;13.092;2023-03-08T04:44:55;99490.42;;;5.39;53.26
27304;BME280;14791;52.392;13.092;2023-03-08T04:47:26;99490.31;;;5.41;53.21
27304;BME280;14791;52.392;13.092;2023-03-08T04:49:55;99497.69;;;5.43;53.13
27304;BME280;14791;52.392;13.092;2023-03-08T04:52:24;99490.52;;;5.45;53.07
27304;BME280;14791;52.392;13.092;2023-03-08T04:54:53;99494.00;;;5.45;53.01
27304;BME280;14791;52.392;13.092;2023-03-08T04:57:23;99485.14;;;5.46;52.93
27304;BME280;14791;52.392;13.092;2023-03-08T04:59:54;99480.69;;;5.47;52.85
27304;BME280;14791;52.392;13.092;2023-03-08T05:02:23;99486.34;;;5.48;52.81
27304;BME280;14791;52.392;13.092;2023-03-08T05:04:52;99487.59;;;5.49;52.73
27304;BME280;14791;52.392;13.092;2023-03-08T05:07:21;99488.44;;;5.50;52.68
27304;BME280;14791;52.392;13.092;2023-03-08T05:09:52;99487.11;;;5.50;52.59
27304;BME280;14791;52.392;13.092;2023-03-08T05:12:21;99496.38;;;5.50;52.54
27304;BME280;14791;52.392;13.092;2023-03-08T05:14:51;99497.81;;;5.48;52.54
27304;BME280;14791;52.392;13.092;2023-03-08T05:17:20;99497.13;;;5.45;52.50
27304;BME280;14791;52.392;13.092;2023-03-08T05:19:49;99504.71;;;5.44;52.44
27304;BME280;14791;52.392;13.092;2023-03-08T05:22:20;99500.90;;;5.41;52.42
27304;BME280;14791;52.392;13.092;2023-03-08T05:24:50;99505.83;;;5.40;52.45
27304;BME280;14791;52.392;13.092;2023-03-08T05:27:19;99503.94;;;5.35;52.50
27304;BME280;14791;52.392;13.092;2023-03-08T05:29:51;99506.01;;;5.29;52.61
27304;BME280;14791;52.392;13.092;2023-03-08T05:32:19;99505.23;;;5.27;52.65
27304;BME280;14791;52.392;13.092;2023-03-08T05:34:51;99507.20;;;5.24;52.75
27304;BME280;14791;52.392;13.092;2023-03-08T05:37:22;99510.41;;;5.22;52.81
27304;BME280;14791;52.392;13.092;2023-03-08T05:39:52;99517.50;;;5.21;52.79
27304;BME280;14791;52.392;13.092;2023-03-08T05:42:22;99510.99;;;5.20;52.82
27304;BME280;14791;52.392;13.092;2023-03-08T05:44:52;99511.44;;;5.19;52.90
27304;BME280;14791;52.392;13.092;2023-03-08T05:47:22;99508.80;;;5.19;52.94
27304;BME280;14791;52.392;13.092;2023-03-08T05:49:52;99515.41;;;5.19;52.98
27304;BME280;14791;52.392;13.092;2023-03-08T05:52:21;99520.26;;;5.20;52.98
27304;BME280;14791;52.392;13.092;2023-03-08T05:54:53;99517.50;;;5.21;53.00
27304;BME280;14791;52.392;13.092;2023-03-08T05:57:22;99520.55;;;5.22;52.95
27304;BME280;14791;52.392;13.092;2023-03-08T05:59:51;99525.84;;;5.22;52.91
27304;BME280;14791;52.392;13.092;2023-03-08T06:02:22;99520.84;;;5.25;52.91
27304;BME280;14791;52.392;13.092;2023-03-08T06:04:52;99523.84;;;5.26;52.94
27304;BME280;14791;52.392;13.092;2023-03-08T06:07:24;99530.28;;;5.29;53.00
27304;BME280;14791;52.392;13.092;2023-03-08T06:09:59;99526.59;;;5.31;53.05
27304;BME280;14791;52.392;13.092;2023-03-08T06:12:28;99518.50;;;5.35;53.04
27304;BME280;14791;52.392;13.092;2023-03-08T06:14:59;99516.42;;;5.40;53.03
27304;BME280;14791;52.392;13.092;2023-03-08T06:17:28;99514.34;;;5.45;52.97
27304;BME280;14791;52.392;13.092;2023-03-08T06:19:59;99521.17;;;5.49;52.93
27304;BME280;14791;52.392;13.092;2023-03-08T06:22:28;99524.39;;;5.54;52.87
27304;BME280;14791;52.392;13.092;2023-03-08T06:24:57;99530.27;;;5.59;52.88
27304;BME280;14791;52.392;13.092;2023-03-08T06:27:28;99531.31;;;5.64;52.88
27304;BME280;14791;52.392;13.092;2023-03-08T06:29:58;99535.01;;;5.68;52.82
27304;BME280;14791;52.392;13.092;2023-03-08T06:32:29;99536.53;;;5.72;52.79
27304;BME280;14791;52.392;13.092;2023-03-08T06:34:59;99539.84;;;5.76;52.81
27304;BME280;14791;52.392;13.092;2023-03-08T06:37:31;99540.52;;;5.80;52.84
27304;BME280;14791;52.392;13.092;2023-03-08T06:40:01;99534.63;;;5.82;52.81
27304;BME280;14791;52.392;13.092;2023-03-08T06:42:32;99537.48;;;5.86;52.84
27304;BME280;14791;52.392;13.092;2023-03-08T06:45:01;99540.61;;;5.92;52.84
27304;BME280;14791;52.392;13.092;2023-03-08T06:47:30;99540.36;;;5.97;52.79
27304;BME280;14791;52.392;13.092;2023-03-08T06:50:00;99535.83;;;5.99;52.71
27304;BME280;14791;52.392;13.092;2023-03-08T06:52:29;99529.84;;;6.03;52.59
27304;BME280;14791;52.392;13.092;2023-03-08T06:55:06;99531.56;;;6.04;52.57
27304;BME280;14791;52.392;13.092;2023-03-08T06:57:35;99517.44;;;6.03;52.57
27304;BME280;14791;52.392;13.092;2023-03-08T07:00:05;99522.38;;;6.02;52.64
27304;BME280;14791;52.392;13.092;2023-03-08T07:02:36;99514.42;;;6.02;52.68
27304;BME280;14791;52.392;13.092;2023-03-08T07:05:05;99510.81;;;6.03;52.76
27304;BME280;14791;52.392;13.092;2023-03-08T07:07:34;99511.57;;;6.05;52.81
27304;BME280;14791;52.392;13.092;2023-03-08T07:10:04;99516.78;;;6.07;52.79
27304;BME280;14791;52.392;13.092;2023-03-08T07:12:33;99519.72;;;6.09;52.85
27304;BME280;14791;52.392;13.092;2023-03-08T07:15:03;99519.52;;;6.12;52.92
27304;BME280;14791;52.392;13.092;2023-03-08T07:17:32;99514.98;;;6.14;53.06
27304;BME280;14791;52.392;13.092;2023-03-08T07:20:03;99517.70;;;6.20;53.12
27304;BME280;14791;52.392;13.092;2023-03-08T07:22:35;99515.52;;;6.27;53.10
27304;BME280;14791;52.392;13.092;2023-03-08T07:25:04;99516.95;;;6.32;53.05
27304;BME280;14791;52.392;13.092;2023-03-08T07:27:33;99517.99;;;6.37;52.96
27304;BME280;14791;52.392;13.092;2023-03-08T07:30:02;99518.16;;;6.41;52.93
27304;BME280;14791;52.392;13.092;2023-03-08T07:32:31;99531.52;;;6.47;52.94
27304;BME280;14791;52.392;13.092;2023-03-08T07:35:01;99530.83;;;6.50;52.95
27304;BME280;14791;52.392;13.092;2023-03-08T07:37:30;99537.09;;;6.56;52.98
27304;BME280;14791;52.392;13.092;2023-03-08T07:39:59;99543.31;;;6.63;53.03
27304;BME280;14791;52.392;13.092;2023-03-08T07:42:28;99540.27;;;6.69;53.02
27304;BME280;14791;52.392;13.092;2023-03-08T07:44:59;99539.50;;;6.74;53.01
27304;BME280;14791;52.392;13.092;2023-03-08T07:47:28;99542.22;;;6.79;53.14
27304;BME280;14791;52.392;13.092;2023-03-08T07:50:00;99537.77;;;6.87;53.19
27304;BME280;14791;52.392;13.092;2023-03-08T07:52:29;99534.11;;;6.95;53.13
27304;BME280;14791;52.392;13.092;2023-03-08T07:54:58;99534.00;;;7.04;53.12
27304;BME280;14791;52.392;13.092;2023-03-08T07:57:29;99529.86;;;7.13;53.19
27304;BME280;14791;52.392;13.092;2023-03-08T07:59:58;99526.02;;;7.24;53.14
27304;BME280;14791;52.392;13.092;2023-03-08T08:02:27;99528.81;;;7.35;52.96
27304;BME280;14791;52.392;13.092;2023-03-08T08:04:56;99530.95;;;7.43;52.82
27304;BME280;14791;52.392;13.092;2023-03-08T08:07:25;99527.19;;;7.53;52.74
27304;BME280;14791;52.392;13.092;2023-03-08T08:09:54;99521.83;;;7.60;52.45
27304;BME280;14791;52.392;13.092;2023-03-08T08:12:22;99531.17;;;7.65;52.22
27304;BME280;14791;52.392;13.092;2023-03-08T08:14:51;99529.17;;;7.69;52.13
27304;BME280;14791;52.392;13.092;2023-03-08T08:17:21;99528.73;;;7.75;52.05
27304;BME280;14791;52.392;13.092;2023-03-08T08:19:51;99525.66;;;7.81;52.01
27304;BME280;14791;52.392;13.092;2023-03-08T08:22:19;99523.89;;;7.87;52.00
27304;BME280;14791;52.392;13.092;2023-03-08T08:24:48;99528.20;;;7.96;51.88
27304;BME280;14791;52.392;13.092;2023-03-08T08:27:17;99524.75;;;8.01;51.78
27304;BME280;14791;52.392;13.092;2023-03-08T08:29:46;99524.69;;;8.08;51.81
27304;BME280;14791;52.392;13.092;2023-03-08T08:32:17;99519.66;;;8.16;51.68
27304;BME280;14791;52.392;13.092;2023-03-08T08:34:46;99516.94;;;8.23;51.57
27304;BME280;14791;52.392;13.092;2023-03-08T08:37:14;99505.38;;;8.30;51.31
27304;BME280;14791;52.392;13.092;2023-03-08T08:39:43;99505.80;;;8.37;51.13
27304;BME280;14791;52.392;13.092;2023-03-08T08:42:12;99503.69;;;8.42;51.04
27304;BME280;14791;52.392;13.092;2023-03-08T08:44:41;99498.87;;;8.47;51.05
27304;BME280;14791;52.392;13.092;2023-03-08T08:47:10;99494.94;;;8.53;50.95
27304;BME280;14791;52.392;13.092;2023-03-08T08:49:39;99489.16;;;8.59;50.87
27304;BME280;14791;52.392;13.092;2023-03-08T08:52:08;99497.44;;;8.67;50.82
27304;BME280;14791;52.392;13.092;2023-03-08T08:54:37;99488.88;;;8.75;50.64
27304;BME280;14791;52.392;13.092;2023-03-08T08:57:06;99493.38;;;8.80;50.49
27304;BME280;14791;52.392;13.092;2023-03-08T08:59:35;99487.72;;;8.84;50.33
27304;BME280;14791;52.392;13.092;2023-03-08T09:02:04;99487.73;;;8.90;50.29
27304;BME280;14791;52.392;13.092;2023-03-08T09:04:33;99485.22;;;8.94;50.29
27304;BME280;14791;52.392;13.092;2023-03-08T09:07:02;99487.90;;;9.00;50.44
27304;BME280;14791;52.392;13.092;2023-03-08T09:09:31;99483.81;;;9.07;50.75
27304;BME280;14791;52.392;13.092;2023-03-08T09:12:00;99476.70;;;9.19;50.92
27304;BME280;14791;52.392;13.092;2023-03-08T09:14:29;99478.08;;;9.30;50.98
27304;BME280;14791;52.392;13.092;2023-03-08T09:16:58;99481.48;;;9.43;50.83
27304;BME280;14791;52.392;13.092;2023-03-08T09:19:27;99477.66;;;9.53;50.20
27304;BME280;14791;52.392;13.092;2023-03-08T09:21:55;99473.41;;;9.62;50.08
27304;BME280;14791;52.392;13.092;2023-03-08T09:24:25;99469.90;;;9.67;50.07
27304;BME280;14791;52.392;13.092;2023-03-08T09:26:53;99470.38;;;9.72;50.04
27304;BME280;14791;52.392;13.092;2023-03-08T09:29:24;99470.27;;;9.79;50.10
27304;BME280;14791;52.392;13.092;2023-03-08T09:31:53;99468.82;;;9.86;50.22
27304;BME280;14791;52.392;13.092;2023-03-08T09:34:22;99464.48;;;9.96;50.24
27304;BME280;14791;52.392;13.092;2023-03-08T09:36:51;99465.44;;;10.07;50.45
27304;BME280;14791;52.392;13.092;2023-03-08T09:39:20;99463.84;;;10.21;50.69
27304;BME280;14791;52.392;13.092;2023-03-08T09:42:00;99456.94;;;10.35;50.74
27304;BME280;14791;52.392;13.092;2023-03-08T09:52:52;99451.79;;;10.93;50.02
27304;BME280;14791;52.392;13.092;2023-03-08T09:55:29;99447.02;;;11.02;49.72
27304;BME280;14791;52.392;13.092;2023-03-08T10:00:37;99431.63;;;11.15;49.11
27304;BME280;14791;52.392;13.092;2023-03-08T10:06:17;99427.45;;;11.28;48.58
27304;BME280;14791;52.392;13.092;2023-03-08T10:11:47;99429.91;;;11.20;48.05
27304;BME280;14791;52.392;13.092;2023-03-08T10:16:55;99426.22;;;11.05;47.67
27304;BME280;14791;52.392;13.092;2023-03-08T10:19:42;99424.92;;;11.00;47.38
27304;BME280;14791;52.392;13.092;2023-03-08T10:22:10;99426.88;;;10.98;47.27
27304;BME280;14791;52.392;13.092;2023-03-08T10:24:44;99423.48;;;10.96;47.45
27304;BME280;14791;52.392;13.092;2023-03-08T10:27:24;99423.48;;;10.96;47.45
27304;BME280;14791;52.392;13.092;2023-03-08T10:29:56;99416.19;;;10.98;47.47
27304;BME280;14791;52.392;13.092;2023-03-08T10:32:26;99414.96;;;11.02;47.42
27304;BME280;14791;52.392;13.092;2023-03-08T10:35:03;99409.45;;;11.09;47.48
27304;BME280;14791;52.392;13.092;2023-03-08T10:37:33;99415.36;;;11.18;47.33
27304;BME280;14791;52.392;13.092;2023-03-08T10:40:15;99419.44;;;11.22;47.08
27304;BME280;14791;52.392;13.092;2023-03-08T10:42:36;99414.92;;;11.28;46.82
27304;BME280;14791;52.392;13.092;2023-03-08T10:45:13;99405.17;;;11.33;46.80
27304;BME280;14791;52.392;13.092;2023-03-08T10:47:52;99397.61;;;11.38;46.56
27304;BME280;14791;52.392;13.092;2023-03-08T10:50:17;99401.84;;;11.41;46.63
27304;BME280;14791;52.392;13.092;2023-03-08T10:52:48;99393.98;;;11.49;46.68
27304;BME280;14791;52.392;13.092;2023-03-08T10:55:41;99389.11;;;11.54;46.51
27304;BME280;14791;52.392;13.092;2023-03-08T10:58:01;99380.27;;;11.63;46.41
27304;BME280;14791;52.392;13.092;2023-03-08T11:00:39;99379.45;;;11.73;46.56
27304;BME280;14791;52.392;13.092;2023-03-08T11:03:17;99380.27;;;11.79;45.85
27304;BME280;14791;52.392;13.092;2023-03-08T11:06:13;99371.88;;;11.78;45.56
27304;BME280;14791;52.392;13.092;2023-03-08T11:08:53;99376.53;;;11.76;45.54
27304;BME280;14791;52.392;13.092;2023-03-08T11:11:23;99375.38;;;11.68;45.88
27304;BME280;14791;52.392;13.092;2023-03-08T11:13:53;99368.05;;;11.70;46.27
27304;BME280;14791;52.392;13.092;2023-03-08T11:27:33;99346.66;;;12.21;46.61
27304;BME280;14791;52.392;13.092;2023-03-08T11:30:09;99347.25;;;12.34;46.27
27304;BME280;14791;52.392;13.092;2023-03-08T11:35:44;99329.02;;;12.43;45.06
27304;BME280;14791;52.392;13.092;2023-03-08T11:38:25;99319.91;;;12.40;44.95
27304;BME280;14791;52.392;13.092;2023-03-08T11:44:03;99321.91;;;12.38;44.89
27304;BME280;14791;52.392;13.092;2023-03-08T11:57:40;99296.52;;;12.42;44.24
27304;BME280;14791;52.392;13.092;2023-03-08T12:00:21;99296.47;;;12.38;43.95
27304;BME280;14791;52.392;13.092;2023-03-08T12:02:50;99285.59;;;12.30;43.74
27304;BME280;14791;52.392;13.092;2023-03-08T12:07:59;99280.16;;;12.16;43.54
27304;BME280;14791;52.392;13.092;2023-03-08T12:10:41;99277.56;;;12.10;43.76
27304;BME280;14791;52.392;13.092;2023-03-08T12:13:41;99273.92;;;12.11;44.05
27304;BME280;14791;52.392;13.092;2023-03-08T12:16:43;99275.30;;;12.16;44.48
27304;BME280;14791;52.392;13.092;2023-03-08T12:21:59;99269.33;;;12.27;44.17
27304;BME280;14791;52.392;13.092;2023-03-08T12:24:37;99267.23;;;12.31;44.18
27304;BME280;14791;52.392;13.092;2023-03-08T12:27:06;99258.20;;;12.32;43.94
27304;BME280;14791;52.392;13.092;2023-03-08T12:29:44;99259.23;;;12.35;43.82
27304;BME280;14791;52.392;13.092;2023-03-08T12:32:13;99267.98;;;12.37;43.57
27304;BME280;14791;52.392;13.092;2023-03-08T12:34:45;99257.20;;;12.33;43.57
27304;BME280;14791;52.392;13.092;2023-03-08T12:37:22;99266.94;;;12.34;43.61
27304;BME280;14791;52.392;13.092;2023-03-08T12:40:25;99251.92;;;12.37;43.70
27304;BME280;14791;52.392;13.092;2023-03-08T12:42:36;99252.00;;;12.41;43.76
27304;BME280;14791;52.392;13.092;2023-03-08T12:45:30;99253.41;;;12.45;43.80
27304;BME280;14791;52.392;13.092;2023-03-08T12:47:40;99252.98;;;12.50;43.70
27304;BME280;14791;52.392;13.092;2023-03-08T12:50:14;99252.81;;;12.51;43.53
27304;BME280;14791;52.392;13.092;2023-03-08T12:52:42;99255.87;;;12.52;43.28
27304;BME280;14791;52.392;13.092;2023-03-08T12:55:19;99254.79;;;12.49;43.28
27304;BME280;14791;52.392;13.092;2023-03-08T12:57:52;99258.77;;;12.45;43.40
27304;BME280;14791;52.392;13.092;2023-03-08T13:00:26;99249.31;;;12.41;43.62
27304;BME280;14791;52.392;13.092;2023-03-08T13:05:44;99249.95;;;12.39;43.58
27304;BME280;14791;52.392;13.092;2023-03-08T13:08:21;99248.41;;;12.37;43.76
27304;BME280;14791;52.392;13.092;2023-03-08T13:13:45;99249.24;;;12.37;43.52
27304;BME280;14791;52.392;13.092;2023-03-08T13:16:36;99252.55;;;12.35;43.33
27304;BME280;14791;52.392;13.092;2023-03-08T13:19:25;99250.25;;;12.26;43.22
27304;BME280;14791;52.392;13.092;2023-03-08T13:24:49;99259.62;;;12.07;43.44
27304;BME280;14791;52.392;13.092;2023-03-08T13:32:50;99263.12;;;11.88;43.73
27304;BME280;14791;52.392;13.092;2023-03-08T13:35:21;99261.78;;;11.88;43.92
27304;BME280;14791;52.392;13.092;2023-03-08T13:38:00;99259.44;;;11.89;43.91
27304;BME280;14791;52.392;13.092;2023-03-08T13:40:27;99259.66;;;11.91;44.23
27304;BME280;14791;52.392;13.092;2023-03-08T13:43:03;99259.81;;;11.90;44.34
27304;BME280;14791;52.392;13.092;2023-03-08T13:45:33;99258.98;;;11.84;44.35
27304;BME280;14791;52.392;13.092;2023-03-08T13:48:06;99252.78;;;11.74;44.61
27304;BME280;14791;52.392;13.092;2023-03-08T13:50:42;99261.25;;;11.63;44.82
27304;BME280;14791;52.392;13.092;2023-03-08T13:53:18;99260.52;;;11.52;44.99
27304;BME280;14791;52.392;13.092;2023-03-08T13:55:49;99265.50;;;11.41;45.25
27304;BME280;14791;52.392;13.092;2023-03-08T14:01:10;99252.34;;;11.18;45.13
27304;BME280;14791;52.392;13.092;2023-03-08T14:03:40;99255.20;;;11.11;45.54
27304;BME280;14791;52.392;13.092;2023-03-08T14:06:21;99252.61;;;11.00;45.88
27304;BME280;14791;52.392;13.092;2023-03-08T14:08:52;99256.89;;;10.97;46.13
27304;BME280;14791;52.392;13.092;2023-03-08T14:11:25;99252.78;;;10.93;46.38
27304;BME280;14791;52.392;13.092;2023-03-08T14:13:56;99252.78;;;10.93;46.38
27304;BME280;14791;52.392;13.092;2023-03-08T14:16:36;99255.45;;;10.93;46.40
27304;BME280;14791;52.392;13.092;2023-03-08T14:19:26;99254.73;;;10.91;46.32
27304;BME280;14791;52.392;13.092;2023-03-08T14:22:32;99253.91;;;10.84;46.39
27304;BME280;14791;52.392;13.092;2023-03-08T14:24:35;99245.34;;;10.81;46.55
27304;BME280;14791;52.392;13.092;2023-03-08T14:27:23;99243.67;;;10.74;46.70
27304;BME280;14791;52.392;13.092;2023-03-08T14:29:36;99241.72;;;10.76;46.77
27304;BME280;14791;52.392;13.092;2023-03-08T14:34:45;99231.14;;;10.80;46.76